Time;durP1;ratioP1;P1;durP2;ratioP2;P2;SDS_P1;SDS_P2;PMS_P1;PMS_P2;Temp;Humidity;BMP_temperature;BMP_pressure;BME280_temperature;BME280_humidity;BME280_pressure;Samples;Min_cycle;Max_cycle;Signal;HPM_P1;HPM_P2
2023/10/14 04:00:25;;;;;;;;;;;18.10;99.90;;;;;;5986521;23;19931;-64
2023/10/14 04:02:51;;;;;;;;;;;18.20;99.90;;;;;;4976653;28;19922;-63
2023/10/14 04:05:19;;;;;;;;;;;18.20;99.90;;;;;;4976032;28;19933;-64
2023/10/14 04:07:44;;;;;;;;;;;18.10;99.90;;;;;;4965323;28;19967;-63
2023/10/14 04:10:11;;;;;;;;;;;18.00;99.90;;;;;;4956023;28;19910;-63
2023/10/14 04:12:37;;;;;;;;;;;18.00;99.90;;;;;;4957295;28;20281;-63
2023/10/14 04:17:38;;;;;;;;;;;18.10;99.90;;;;;;4957602;28;20005;-65
2023/10/14 04:22:38;;;;;;;;;;;18.00;99.90;;;;;;4976669;28;19910;-65
2023/10/14 04:27:45;;;;;;;;;;;18.10;99.90;;;;;;4976513;28;19917;-65
2023/10/14 04:30:11;;;;;;;;;;;18.20;99.90;;;;;;4976502;28;19964;-65
2023/10/14 04:32:42;;;;;;;;;;;18.20;99.90;;;;;;4976564;28;20001;-65
2023/10/14 04:35:08;;;;;;;;;;;18.30;99.90;;;;;;4976163;28;19918;-65
2023/10/14 04:37:50;;;;;;;;;;;18.30;99.90;;;;;;4975577;28;19921;-65
2023/10/14 04:40:34;;;;;;;;;;;18.30;99.90;;;;;;4975769;28;19914;-65
2023/10/14 04:43:02;;;;;;;;;;;18.40;99.90;;;;;;4976104;28;20392;-65
2023/10/14 04:45:33;;;;;;;;;;;18.40;99.90;;;;;;4976299;28;19910;-65
2023/10/14 04:47:58;;;;;;;;;;;18.40;99.90;;;;;;4976443;28;19917;-65
2023/10/14 04:50:24;;;;;;;;;;;18.40;99.90;;;;;;4975763;28;20276;-65
2023/10/14 04:52:49;;;;;;;;;;;18.40;99.90;;;;;;4975862;28;19910;-65
2023/10/14 04:55:35;;;;;;;;;;;18.40;99.90;;;;;;4976705;28;20405;-65
2023/10/14 04:58:11;;;;;;;;;;;18.30;99.90;;;;;;4974601;28;19962;-66
2023/10/14 05:00:43;;;;;;;;;;;18.40;99.90;;;;;;4978110;28;19924;-65
2023/10/14 05:03:11;;;;;;;;;;;18.40;99.90;;;;;;4975907;28;20412;-65
2023/10/14 05:05:38;;;;;;;;;;;18.40;99.90;;;;;;4975427;28;19957;-64
2023/10/14 05:08:05;;;;;;;;;;;18.40;99.90;;;;;;4975192;28;19910;-65
2023/10/14 05:10:31;;;;;;;;;;;18.40;99.90;;;;;;4975618;28;19914;-66
2023/10/14 05:12:56;;;;;;;;;;;18.50;99.90;;;;;;4975521;28;19917;-66
2023/10/14 05:15:26;;;;;;;;;;;18.40;99.90;;;;;;4975374;28;20025;-66
2023/10/14 05:18:00;;;;;;;;;;;18.40;99.90;;;;;;4975258;28;19921;-66
2023/10/14 05:23:11;;;;;;;;;;;18.50;99.90;;;;;;4975393;28;19921;-65
2023/10/14 05:25:39;;;;;;;;;;;18.60;99.90;;;;;;4975385;28;19914;-65
2023/10/14 05:28:06;;;;;;;;;;;18.70;99.90;;;;;;4975687;28;19914;-65
2023/10/14 05:30:35;;;;;;;;;;;18.60;99.90;;;;;;4974801;28;20296;-65
2023/10/14 05:33:06;;;;;;;;;;;18.60;99.90;;;;;;4975512;28;20325;-65
2023/10/14 05:35:39;;;;;;;;;;;18.60;99.90;;;;;;4975232;28;19910;-64
2023/10/14 05:38:09;;;;;;;;;;;18.60;99.90;;;;;;4975090;28;19910;-67
2023/10/14 05:40:44;;;;;;;;;;;18.60;99.90;;;;;;4975446;28;20380;-66
2023/10/14 05:43:09;;;;;;;;;;;18.70;99.90;;;;;;4974987;28;19910;-66
2023/10/14 05:45:36;;;;;;;;;;;18.70;99.90;;;;;;4968383;28;20060;-66
2023/10/14 05:48:04;;;;;;;;;;;18.70;99.90;;;;;;4965175;28;20404;-66
2023/10/14 05:50:33;;;;;;;;;;;18.50;99.90;;;;;;4966360;28;19910;-66
2023/10/14 05:52:59;;;;;;;;;;;18.70;99.90;;;;;;4964424;28;19922;-66
2023/10/14 05:55:25;;;;;;;;;;;18.60;99.90;;;;;;4964687;28;19917;-66
2023/10/14 05:57:51;;;;;;;;;;;18.60;99.90;;;;;;4965998;28;19965;-66
2023/10/14 06:00:23;;;;;;;;;;;18.60;99.90;;;;;;4967162;28;19918;-65
2023/10/14 06:02:49;;;;;;;;;;;18.70;99.90;;;;;;4974840;28;19932;-65
2023/10/14 06:05:18;;;;;;;;;;;18.70;99.90;;;;;;4968668;28;20300;-65
2023/10/14 06:07:46;;;;;;;;;;;18.70;99.90;;;;;;4973115;28;19997;-65
2023/10/14 06:10:20;;;;;;;;;;;18.80;99.90;;;;;;4974328;28;19921;-65
2023/10/14 06:12:50;;;;;;;;;;;18.80;99.90;;;;;;4971096;28;19917;-65
2023/10/14 06:15:17;;;;;;;;;;;18.80;99.90;;;;;;4974453;28;20380;-64
2023/10/14 06:17:44;;;;;;;;;;;18.90;99.90;;;;;;4964451;28;20013;-64
2023/10/14 06:20:13;;;;;;;;;;;18.90;99.90;;;;;;4955248;29;20353;-65
2023/10/14 06:22:40;;;;;;;;;;;18.90;99.90;;;;;;4955025;29;19997;-65
2023/10/14 06:25:06;;;;;;;;;;;18.90;99.90;;;;;;4955372;29;20009;-64
2023/10/14 06:27:31;;;;;;;;;;;18.90;99.90;;;;;;4955911;29;19961;-64
2023/10/14 06:29:57;;;;;;;;;;;18.90;99.90;;;;;;4958455;28;19961;-64
2023/10/14 06:32:23;;;;;;;;;;;19.00;99.90;;;;;;4974858;28;19910;-64
2023/10/14 06:34:57;;;;;;;;;;;18.90;99.90;;;;;;4974684;28;19917;-64
2023/10/14 06:37:26;;;;;;;;;;;18.90;99.90;;;;;;4973915;28;19961;-64
2023/10/14 06:39:52;;;;;;;;;;;19.00;99.90;;;;;;4974701;28;19921;-65
2023/10/14 06:42:22;;;;;;;;;;;19.10;99.90;;;;;;4974108;28;19915;-64
2023/10/14 06:44:48;;;;;;;;;;;19.10;99.90;;;;;;4974223;28;19921;-66
2023/10/14 06:47:13;;;;;;;;;;;19.20;99.90;;;;;;4974318;28;19910;-65
2023/10/14 06:49:41;;;;;;;;;;;19.10;99.90;;;;;;4974771;28;19910;-65
2023/10/14 06:52:14;;;;;;;;;;;19.10;99.90;;;;;;4974582;28;19965;-64
2023/10/14 06:54:41;;;;;;;;;;;19.20;99.90;;;;;;4975083;28;19917;-65
2023/10/14 06:57:09;;;;;;;;;;;19.20;99.90;;;;;;4974345;28;19910;-65
2023/10/14 06:59:37;;;;;;;;;;;19.30;99.90;;;;;;4973946;28;19918;-64
2023/10/14 07:02:03;;;;;;;;;;;19.50;99.90;;;;;;4972825;28;19940;-65
2023/10/14 07:04:28;;;;;;;;;;;19.40;99.90;;;;;;4974595;28;20369;-63
2023/10/14 07:06:58;;;;;;;;;;;19.30;99.90;;;;;;4973955;28;19914;-63
2023/10/14 07:09:27;;;;;;;;;;;19.40;99.90;;;;;;4973718;28;19961;-63
2023/10/14 07:11:55;;;;;;;;;;;19.40;99.90;;;;;;4973580;28;20000;-64
2023/10/14 07:14:21;;;;;;;;;;;19.40;99.90;;;;;;4974063;28;19910;-64
2023/10/14 07:16:46;;;;;;;;;;;19.40;99.90;;;;;;4976927;28;19917;-63
2023/10/14 07:19:11;;;;;;;;;;;19.50;99.90;;;;;;4977281;28;19968;-65
2023/10/14 07:21:37;;;;;;;;;;;19.40;99.90;;;;;;4977164;28;20004;-64
2023/10/14 07:24:05;;;;;;;;;;;19.40;99.90;;;;;;4977752;28;19913;-64
2023/10/14 07:26:36;;;;;;;;;;;19.30;99.90;;;;;;4977336;28;19925;-64
2023/10/14 07:29:05;;;;;;;;;;;19.20;99.90;;;;;;4977695;28;19914;-66
2023/10/14 07:31:31;;;;;;;;;;;19.20;99.90;;;;;;4977303;28;20022;-67
2023/10/14 07:34:02;;;;;;;;;;;19.10;99.90;;;;;;4972149;28;19933;-67
2023/10/14 07:36:28;;;;;;;;;;;18.90;99.90;;;;;;4969216;28;19911;-66
2023/10/14 07:39:01;;;;;;;;;;;18.70;99.90;;;;;;4962147;28;19922;-66
2023/10/14 07:41:28;;;;;;;;;;;18.60;99.90;;;;;;4969547;28;19914;-60
2023/10/14 07:43:54;;;;;;;;;;;18.40;99.90;;;;;;4976903;28;20013;-61
2023/10/14 07:46:19;;;;;;;;;;;18.10;99.90;;;;;;4977246;28;19953;-61
2023/10/14 07:48:44;;;;;;;;;;;17.70;99.90;;;;;;4977286;28;19910;-62
2023/10/14 07:51:10;;;;;;;;;;;17.30;99.90;;;;;;4976304;28;20675;-62
2023/10/14 07:53:35;;;;;;;;;;;17.20;99.90;;;;;;4977116;28;20359;-63
2023/10/14 07:56:02;;;;;;;;;;;17.00;99.90;;;;;;4976913;28;19914;-62
2023/10/14 07:58:28;;;;;;;;;;;16.90;99.90;;;;;;4976445;28;19937;-62
2023/10/14 08:00:55;;;;;;;;;;;17.00;99.90;;;;;;4976380;28;19925;-65
2023/10/14 08:03:23;;;;;;;;;;;17.00;99.90;;;;;;4976476;28;19910;-63
2023/10/14 08:05:50;;;;;;;;;;;17.00;99.90;;;;;;4976748;28;20341;-64
2023/10/14 08:08:17;;;;;;;;;;;17.00;99.90;;;;;;4975880;28;20388;-63
2023/10/14 08:10:43;;;;;;;;;;;17.00;99.90;;;;;;4962671;28;19915;-65
2023/10/14 08:13:09;;;;;;;;;;;17.00;99.90;;;;;;4957535;28;19910;-63
2023/10/14 08:15:35;;;;;;;;;;;17.10;99.90;;;;;;4957158;28;19933;-62
2023/10/14 08:18:04;;;;;;;;;;;17.00;99.90;;;;;;4957486;28;20345;-63
2023/10/14 08:20:33;;;;;;;;;;;17.10;99.90;;;;;;4957060;28;20373;-63
2023/10/14 08:22:59;;;;;;;;;;;17.10;99.90;;;;;;4956595;28;19910;-65
2023/10/14 08:25:30;;;;;;;;;;;17.10;99.90;;;;;;4975037;28;19942;-63
2023/10/14 08:27:57;;;;;;;;;;;17.00;99.90;;;;;;4975369;28;19914;-63
2023/10/14 08:30:24;;;;;;;;;;;17.00;99.90;;;;;;4976056;28;19914;-65
2023/10/14 08:32:52;;;;;;;;;;;17.20;99.90;;;;;;4975964;28;20427;-62
2023/10/14 08:35:19;;;;;;;;;;;17.30;99.90;;;;;;4976560;28;20349;-63
2023/10/14 08:37:47;;;;;;;;;;;17.30;99.90;;;;;;4975664;28;19918;-62
2023/10/14 08:40:16;;;;;;;;;;;17.40;99.90;;;;;;4976060;28;19918;-65
2023/10/14 08:42:46;;;;;;;;;;;17.30;99.90;;;;;;4976133;28;21299;-68
2023/10/14 08:45:11;;;;;;;;;;;17.40;99.90;;;;;;4975784;28;20369;-64
2023/10/14 08:47:40;;;;;;;;;;;17.20;99.90;;;;;;4975936;28;20013;-67
2023/10/14 08:50:09;;;;;;;;;;;17.20;99.90;;;;;;4975915;28;20006;-68
2023/10/14 08:52:37;;;;;;;;;;;17.20;99.90;;;;;;4975694;28;20269;-70
2023/10/14 08:55:05;;;;;;;;;;;17.20;99.90;;;;;;4975776;28;19914;-67
2023/10/14 08:57:31;;;;;;;;;;;17.20;99.90;;;;;;4975956;28;19914;-68
2023/10/14 08:59:57;;;;;;;;;;;17.10;99.90;;;;;;4975601;28;19969;-67
2023/10/14 09:02:22;;;;;;;;;;;17.10;99.90;;;;;;4974653;28;20310;-66
2023/10/14 09:04:48;;;;;;;;;;;17.10;99.90;;;;;;4974038;28;19914;-66
2023/10/14 09:07:14;;;;;;;;;;;17.20;99.90;;;;;;4974600;28;19917;-66
2023/10/14 09:09:39;;;;;;;;;;;17.20;99.90;;;;;;4975180;28;20381;-66
2023/10/14 09:12:10;;;;;;;;;;;17.10;99.90;;;;;;4975823;28;19949;-66
2023/10/14 09:14:37;;;;;;;;;;;17.10;99.90;;;;;;4975615;28;20265;-66
2023/10/14 09:17:09;;;;;;;;;;;17.20;99.90;;;;;;4975232;28;19989;-66
2023/10/14 09:19:42;;;;;;;;;;;17.10;99.90;;;;;;4974978;28;19914;-65
2023/10/14 09:22:08;;;;;;;;;;;17.20;99.90;;;;;;4974843;28;20289;-65
2023/10/14 09:24:34;;;;;;;;;;;17.10;99.90;;;;;;4973914;28;20361;-66
2023/10/14 09:26:59;;;;;;;;;;;17.20;99.90;;;;;;4975164;28;19917;-66
2023/10/14 09:29:26;;;;;;;;;;;17.10;99.90;;;;;;4975347;28;19916;-66
2023/10/14 09:31:51;;;;;;;;;;;17.20;99.90;;;;;;4975065;28;19965;-66
2023/10/14 09:34:21;;;;;;;;;;;17.10;99.90;;;;;;4974530;28;19914;-66
2023/10/14 09:36:49;;;;;;;;;;;17.10;99.90;;;;;;4971243;28;19910;-65
2023/10/14 09:39:20;;;;;;;;;;;17.20;99.90;;;;;;4971809;28;19914;-65
2023/10/14 09:41:47;;;;;;;;;;;17.20;99.90;;;;;;4972956;28;19910;-67
2023/10/14 09:44:14;;;;;;;;;;;17.20;99.90;;;;;;4971910;28;19914;-67
2023/10/14 09:46:40;;;;;;;;;;;17.30;99.90;;;;;;4972995;28;19965;-67
2023/10/14 09:49:10;;;;;;;;;;;17.30;99.90;;;;;;4971700;28;19918;-66
2023/10/14 09:51:36;;;;;;;;;;;17.30;99.90;;;;;;4973920;28;19922;-67
2023/10/14 09:54:03;;;;;;;;;;;17.30;99.90;;;;;;4974952;28;20047;-67
2023/10/14 09:56:30;;;;;;;;;;;17.30;99.90;;;;;;4975515;28;19926;-67
2023/10/14 09:58:56;;;;;;;;;;;17.10;99.90;;;;;;4974931;28;19965;-66
2023/10/14 10:01:24;;;;;;;;;;;17.10;99.90;;;;;;4974459;28;19922;-66
2023/10/14 10:04:08;;;;;;;;;;;17.00;99.90;;;;;;4975266;28;20331;-66
2023/10/14 10:06:37;;;;;;;;;;;16.90;99.90;;;;;;4974626;28;19916;-66
2023/10/14 10:09:21;;;;;;;;;;;16.90;99.90;;;;;;4955406;28;19917;-67
2023/10/14 10:11:50;;;;;;;;;;;16.90;99.90;;;;;;4955301;28;20002;-67
2023/10/14 10:14:19;;;;;;;;;;;16.90;99.90;;;;;;4985233;23;19930;-68
2023/10/14 10:16:47;;;;;;;;;;;16.90;99.90;;;;;;4976284;28;19961;-68
2023/10/14 10:19:13;;;;;;;;;;;16.90;99.90;;;;;;4965674;28;19930;-67
2023/10/14 10:21:43;;;;;;;;;;;16.90;99.90;;;;;;4942269;29;19911;-68
2023/10/14 10:24:18;;;;;;;;;;;16.90;99.90;;;;;;4940834;29;19911;-68
2023/10/14 10:26:57;;;;;;;;;;;16.90;99.90;;;;;;4938798;29;19918;-67
2023/10/14 10:29:22;;;;;;;;;;;16.90;99.90;;;;;;4939164;29;19968;-68
2023/10/14 10:32:07;;;;;;;;;;;16.80;99.90;;;;;;4939169;29;19915;-68
2023/10/14 10:34:33;;;;;;;;;;;16.80;99.90;;;;;;4938856;29;19911;-68
2023/10/14 10:36:59;;;;;;;;;;;16.80;99.90;;;;;;4939175;29;19910;-66
2023/10/14 10:39:25;;;;;;;;;;;16.90;99.90;;;;;;4940133;29;19915;-68
2023/10/14 10:41:50;;;;;;;;;;;16.90;99.90;;;;;;4938911;29;20006;-70
2023/10/14 10:44:18;;;;;;;;;;;16.90;99.90;;;;;;4946941;29;19958;-68
2023/10/14 10:46:48;;;;;;;;;;;16.80;99.90;;;;;;4958062;28;19911;-67
2023/10/14 10:49:14;;;;;;;;;;;16.70;99.90;;;;;;4958918;28;19918;-67
2023/10/14 10:51:50;;;;;;;;;;;16.70;99.90;;;;;;4963084;28;19910;-66
2023/10/14 10:54:16;;;;;;;;;;;16.60;99.90;;;;;;4964961;28;19973;-67
2023/10/14 10:56:43;;;;;;;;;;;16.50;99.90;;;;;;4963590;28;19917;-66
2023/10/14 10:59:08;;;;;;;;;;;16.50;99.90;;;;;;4960871;28;19922;-67
2023/10/14 11:01:34;;;;;;;;;;;16.50;99.90;;;;;;4959774;28;19959;-67
2023/10/14 11:04:01;;;;;;;;;;;16.60;99.90;;;;;;4960665;28;20350;-68
2023/10/14 11:06:29;;;;;;;;;;;16.60;99.90;;;;;;4961283;28;19914;-66
2023/10/14 11:08:57;;;;;;;;;;;16.60;99.90;;;;;;4962813;28;19911;-64
2023/10/14 11:11:30;;;;;;;;;;;16.50;99.90;;;;;;4978930;28;19983;-66
2023/10/14 11:13:56;;;;;;;;;;;16.60;99.90;;;;;;4962622;28;19930;-67
2023/10/14 11:16:22;;;;;;;;;;;16.70;99.90;;;;;;4961582;28;19910;-67
2023/10/14 11:18:50;;;;;;;;;;;16.70;99.90;;;;;;4961778;29;19915;-66
2023/10/14 11:21:16;;;;;;;;;;;16.70;99.90;;;;;;4962150;28;19922;-67
2023/10/14 11:23:42;;;;;;;;;;;16.80;99.90;;;;;;4959869;28;20300;-67
2023/10/14 11:26:12;;;;;;;;;;;16.70;99.90;;;;;;4961593;28;19911;-66
2023/10/14 11:28:45;;;;;;;;;;;16.80;99.90;;;;;;4960445;28;20329;-67
2023/10/14 11:31:11;;;;;;;;;;;16.80;99.90;;;;;;4960048;29;20362;-66
2023/10/14 11:33:36;;;;;;;;;;;17.00;99.90;;;;;;4963175;28;20021;-66
2023/10/14 11:36:05;;;;;;;;;;;16.90;99.90;;;;;;4958536;28;19962;-68
2023/10/14 11:38:31;;;;;;;;;;;16.90;99.90;;;;;;4960761;28;19957;-69
2023/10/14 11:41:02;;;;;;;;;;;17.00;99.90;;;;;;4961403;28;19922;-66
2023/10/14 11:43:29;;;;;;;;;;;17.10;99.90;;;;;;4958943;28;19911;-66
2023/10/14 11:45:56;;;;;;;;;;;16.90;99.90;;;;;;4953272;28;19969;-63
2023/10/14 11:48:25;;;;;;;;;;;16.90;99.90;;;;;;4939335;29;19911;-66
2023/10/14 11:50:58;;;;;;;;;;;17.00;99.90;;;;;;4950693;29;20250;-67
2023/10/14 11:53:28;;;;;;;;;;;17.10;99.90;;;;;;4959673;28;19911;-67
2023/10/14 11:55:58;;;;;;;;;;;17.00;99.90;;;;;;4960919;28;19974;-67
2023/10/14 11:58:30;;;;;;;;;;;17.10;99.90;;;;;;4960604;28;19910;-66
2023/10/14 12:00:57;;;;;;;;;;;17.10;99.90;;;;;;4962191;28;19914;-65
2023/10/14 12:03:26;;;;;;;;;;;17.20;99.90;;;;;;4960421;28;19910;-66
2023/10/14 12:05:57;;;;;;;;;;;17.20;99.90;;;;;;4962990;28;19941;-65
2023/10/14 12:08:25;;;;;;;;;;;17.00;99.90;;;;;;4962409;28;19918;-65
2023/10/14 12:10:51;;;;;;;;;;;17.00;99.90;;;;;;4963124;28;20005;-65
2023/10/14 12:13:17;;;;;;;;;;;17.10;99.90;;;;;;4962250;28;19982;-66
2023/10/14 12:15:43;;;;;;;;;;;17.20;99.90;;;;;;4962779;28;19911;-65
2023/10/14 12:18:13;;;;;;;;;;;17.30;99.90;;;;;;4962703;28;20387;-65
2023/10/14 12:20:39;;;;;;;;;;;17.30;99.90;;;;;;4962370;29;19914;-65
2023/10/14 12:23:05;;;;;;;;;;;17.30;99.90;;;;;;4961853;28;19917;-65
2023/10/14 12:25:31;;;;;;;;;;;17.40;99.90;;;;;;4961601;28;19990;-64
2023/10/14 12:27:57;;;;;;;;;;;17.50;99.90;;;;;;4961276;28;20014;-65
2023/10/14 12:30:35;;;;;;;;;;;17.60;99.90;;;;;;4960907;28;19914;-65
2023/10/14 12:33:04;;;;;;;;;;;17.70;99.90;;;;;;4959913;29;19911;-65
2023/10/14 12:35:32;;;;;;;;;;;17.70;99.90;;;;;;4960654;28;19910;-65
2023/10/14 12:37:58;;;;;;;;;;;17.60;99.90;;;;;;4960005;28;19950;-66
2023/10/14 12:40:24;;;;;;;;;;;17.60;99.90;;;;;;4960366;28;20005;-63
2023/10/14 12:42:54;;;;;;;;;;;17.50;99.90;;;;;;4950608;29;20330;-64
2023/10/14 12:45:25;;;;;;;;;;;17.50;99.90;;;;;;4959193;28;20505;-63
2023/10/14 12:47:55;;;;;;;;;;;17.30;99.90;;;;;;4956184;28;20320;-64
2023/10/14 12:50:21;;;;;;;;;;;17.30;99.90;;;;;;4973373;28;19966;-66
2023/10/14 12:52:56;;;;;;;;;;;17.20;99.90;;;;;;4954388;28;19910;-65
2023/10/14 12:55:23;;;;;;;;;;;17.20;99.90;;;;;;4955165;28;20357;-66
2023/10/14 12:57:49;;;;;;;;;;;17.10;99.90;;;;;;4953903;29;19961;-66
2023/10/14 13:00:31;;;;;;;;;;;17.10;99.90;;;;;;4956163;28;19914;-65
2023/10/14 13:02:57;;;;;;;;;;;17.00;99.90;;;;;;4956929;28;19946;-65
2023/10/14 13:05:23;;;;;;;;;;;17.00;99.90;;;;;;4956304;28;20297;-64
2023/10/14 13:07:52;;;;;;;;;;;17.10;99.90;;;;;;4956314;28;19918;-66
2023/10/14 13:10:21;;;;;;;;;;;17.10;99.90;;;;;;4956599;28;19922;-67
2023/10/14 13:12:49;;;;;;;;;;;16.90;99.90;;;;;;4955881;28;20408;-65
2023/10/14 13:15:16;;;;;;;;;;;16.90;99.90;;;;;;4957097;28;19923;-67
2023/10/14 13:17:42;;;;;;;;;;;16.90;99.90;;;;;;4955484;29;19910;-67
2023/10/14 13:20:08;;;;;;;;;;;16.90;99.90;;;;;;4956178;28;19956;-67
2023/10/14 13:22:34;;;;;;;;;;;16.90;99.90;;;;;;4956558;28;19914;-66
2023/10/14 13:25:01;;;;;;;;;;;17.10;99.90;;;;;;4956936;28;19918;-67
2023/10/14 13:27:27;;;;;;;;;;;17.20;99.90;;;;;;4956599;28;19933;-67
2023/10/14 13:29:52;;;;;;;;;;;17.30;99.90;;;;;;4956544;28;20373;-69
2023/10/14 13:32:24;;;;;;;;;;;17.20;99.90;;;;;;4956510;28;20373;-64
2023/10/14 13:34:50;;;;;;;;;;;17.20;99.90;;;;;;4957285;28;19933;-67
2023/10/14 13:37:16;;;;;;;;;;;17.20;99.90;;;;;;4958482;28;19918;-66
2023/10/14 13:39:42;;;;;;;;;;;17.20;99.90;;;;;;4958039;28;19914;-68
2023/10/14 13:42:08;;;;;;;;;;;17.20;99.90;;;;;;4956995;28;19934;-68
2023/10/14 13:44:34;;;;;;;;;;;17.20;99.90;;;;;;4956609;28;20367;-67
2023/10/14 13:47:04;;;;;;;;;;;17.20;99.90;;;;;;4956204;28;19958;-68
2023/10/14 13:49:29;;;;;;;;;;;17.20;99.90;;;;;;4955644;28;19911;-65
2023/10/14 13:51:55;;;;;;;;;;;17.10;99.90;;;;;;4956165;28;19965;-67
2023/10/14 13:54:21;;;;;;;;;;;17.00;99.90;;;;;;4957372;28;20378;-68
2023/10/14 13:56:47;;;;;;;;;;;17.00;99.90;;;;;;4955191;28;19997;-67
2023/10/14 13:59:12;;;;;;;;;;;17.00;99.90;;;;;;4954730;29;20432;-66
2023/10/14 14:01:39;;;;;;;;;;;16.90;99.90;;;;;;4956304;28;19911;-68
2023/10/14 14:04:07;;;;;;;;;;;17.20;99.90;;;;;;4955844;28;19933;-68
2023/10/14 14:06:33;;;;;;;;;;;17.10;99.90;;;;;;4955595;28;19961;-68
2023/10/14 14:09:02;;;;;;;;;;;17.20;99.90;;;;;;4955883;28;19910;-67
2023/10/14 14:11:29;;;;;;;;;;;17.10;99.90;;;;;;4956310;28;19911;-68
2023/10/14 14:13:57;;;;;;;;;;;17.00;99.90;;;;;;4955403;28;19915;-65
2023/10/14 14:16:23;;;;;;;;;;;16.90;99.90;;;;;;4954482;29;19970;-61
2023/10/14 14:18:49;;;;;;;;;;;16.90;99.90;;;;;;4954794;28;19918;-64
2023/10/14 14:21:15;;;;;;;;;;;16.90;99.90;;;;;;4955760;28;20473;-64
2023/10/14 14:23:40;;;;;;;;;;;16.90;99.50;;;;;;4955441;28;19926;-64
2023/10/14 14:26:07;;;;;;;;;;;16.80;99.50;;;;;;4958039;28;19923;-64
2023/10/14 14:28:33;;;;;;;;;;;16.80;99.10;;;;;;4960000;28;19911;-64
2023/10/14 14:31:00;;;;;;;;;;;16.80;98.80;;;;;;4960020;28;19918;-64
2023/10/14 14:33:29;;;;;;;;;;;16.90;98.90;;;;;;4959752;28;20017;-64
2023/10/14 14:35:54;;;;;;;;;;;17.00;98.20;;;;;;4959446;28;19946;-64
2023/10/14 14:38:21;;;;;;;;;;;17.10;98.50;;;;;;4959418;28;20001;-64
2023/10/14 14:40:47;;;;;;;;;;;17.20;97.80;;;;;;4958954;28;20470;-64
2023/10/14 14:43:12;;;;;;;;;;;17.20;97.20;;;;;;4959302;28;19918;-64
2023/10/14 14:45:38;;;;;;;;;;;17.10;97.40;;;;;;4958593;28;19914;-64
2023/10/14 14:48:04;;;;;;;;;;;17.20;97.90;;;;;;4958957;28;19910;-64
2023/10/14 14:50:30;;;;;;;;;;;17.10;98.10;;;;;;4958776;28;19910;-65
2023/10/14 14:52:57;;;;;;;;;;;17.00;98.00;;;;;;4958700;28;19910;-64
2023/10/14 14:55:23;;;;;;;;;;;16.90;98.30;;;;;;4958987;28;19986;-63
2023/10/14 14:57:49;;;;;;;;;;;16.80;98.40;;;;;;4958154;28;20376;-64
2023/10/14 15:00:25;;;;;;;;;;;16.90;97.80;;;;;;4957880;29;19966;-65
2023/10/14 15:02:57;;;;;;;;;;;16.90;97.40;;;;;;4959013;28;19910;-64
2023/10/14 15:05:28;;;;;;;;;;;17.00;96.70;;;;;;4958746;28;19926;-64
2023/10/14 15:07:53;;;;;;;;;;;17.00;96.40;;;;;;4958681;28;19914;-64
2023/10/14 15:10:20;;;;;;;;;;;16.90;96.50;;;;;;4958806;28;20346;-64
2023/10/14 15:12:46;;;;;;;;;;;16.70;96.30;;;;;;4958673;28;20304;-63
2023/10/14 15:15:15;;;;;;;;;;;16.70;96.20;;;;;;4973250;28;19922;-63
2023/10/14 15:17:51;;;;;;;;;;;16.60;96.60;;;;;;4961355;28;19910;-62
2023/10/14 15:20:20;;;;;;;;;;;16.70;96.60;;;;;;4965749;28;20442;-64
2023/10/14 15:22:49;;;;;;;;;;;16.60;96.50;;;;;;4965432;28;20005;-63
2023/10/14 15:25:15;;;;;;;;;;;16.50;96.10;;;;;;4959173;28;19960;-64
2023/10/14 15:27:44;;;;;;;;;;;16.30;95.80;;;;;;4958914;28;19997;-64
2023/10/14 15:30:15;;;;;;;;;;;16.30;95.60;;;;;;4958118;28;19958;-64
2023/10/14 15:32:42;;;;;;;;;;;16.20;95.50;;;;;;4957977;28;19961;-63
2023/10/14 15:35:13;;;;;;;;;;;16.20;95.50;;;;;;4958187;28;19957;-63
2023/10/14 15:37:42;;;;;;;;;;;16.10;96.00;;;;;;4956737;28;19917;-64
2023/10/14 15:40:08;;;;;;;;;;;16.20;95.40;;;;;;4958437;28;19914;-64
2023/10/14 15:42:37;;;;;;;;;;;16.20;95.30;;;;;;4957036;29;20001;-65
2023/10/14 15:45:14;;;;;;;;;;;16.10;95.20;;;;;;4958489;28;19911;-65
2023/10/14 15:47:40;;;;;;;;;;;16.10;94.80;;;;;;4958246;28;19910;-64
2023/10/14 15:50:06;;;;;;;;;;;16.10;95.20;;;;;;4958205;28;19957;-64
2023/10/14 15:52:31;;;;;;;;;;;16.00;95.00;;;;;;4958504;28;19912;-64
2023/10/14 15:54:57;;;;;;;;;;;16.00;95.20;;;;;;4957741;28;19911;-64
2023/10/14 15:57:22;;;;;;;;;;;16.00;95.50;;;;;;4957843;28;19917;-64
2023/10/14 15:59:49;;;;;;;;;;;16.00;94.90;;;;;;4957788;28;20009;-64
2023/10/14 16:02:14;;;;;;;;;;;15.90;95.10;;;;;;4958335;28;20006;-64
2023/10/14 16:04:39;;;;;;;;;;;15.90;95.60;;;;;;4957763;28;20000;-64
2023/10/14 16:07:05;;;;;;;;;;;15.90;95.40;;;;;;4957954;28;19914;-64
2023/10/14 16:09:30;;;;;;;;;;;16.00;95.70;;;;;;4958083;28;19918;-63
2023/10/14 16:11:56;;;;;;;;;;;15.90;95.60;;;;;;4956520;28;20377;-64
2023/10/14 16:14:21;;;;;;;;;;;15.90;95.60;;;;;;4956236;28;19922;-65
2023/10/14 16:16:47;;;;;;;;;;;15.90;95.90;;;;;;4957685;28;19910;-65
2023/10/14 16:19:17;;;;;;;;;;;15.80;96.00;;;;;;4957344;28;19921;-66
2023/10/14 16:21:43;;;;;;;;;;;15.90;96.40;;;;;;4957344;28;19946;-66
2023/10/14 16:24:08;;;;;;;;;;;15.80;96.10;;;;;;4957600;28;19918;-66
2023/10/14 16:26:34;;;;;;;;;;;15.90;96.50;;;;;;4957107;28;20270;-65
2023/10/14 16:29:02;;;;;;;;;;;16.00;96.40;;;;;;4956509;29;20358;-66
2023/10/14 16:31:29;;;;;;;;;;;16.00;96.20;;;;;;4956715;28;19911;-66
2023/10/14 16:33:56;;;;;;;;;;;15.90;96.70;;;;;;4957111;28;20344;-66
2023/10/14 16:36:26;;;;;;;;;;;15.90;96.80;;;;;;4956857;28;19911;-66
2023/10/14 16:38:53;;;;;;;;;;;15.90;97.00;;;;;;4957239;28;20353;-66
2023/10/14 16:41:18;;;;;;;;;;;15.80;97.30;;;;;;4956828;28;19911;-66
2023/10/14 16:43:44;;;;;;;;;;;15.80;97.60;;;;;;4956709;28;19917;-66
2023/10/14 16:46:10;;;;;;;;;;;15.70;97.70;;;;;;4956391;28;19910;-66
2023/10/14 16:48:36;;;;;;;;;;;15.80;97.80;;;;;;4956098;28;19914;-67
2023/10/14 16:51:05;;;;;;;;;;;15.70;97.70;;;;;;4957279;28;19938;-66
2023/10/14 16:53:30;;;;;;;;;;;15.70;98.00;;;;;;4957022;28;19910;-66
2023/10/14 16:55:56;;;;;;;;;;;15.60;98.00;;;;;;4957526;28;19915;-66
2023/10/14 16:58:21;;;;;;;;;;;15.50;98.30;;;;;;4957546;28;19973;-66
2023/10/14 17:00:48;;;;;;;;;;;15.50;98.10;;;;;;4956357;28;20293;-67
2023/10/14 17:03:15;;;;;;;;;;;15.50;98.00;;;;;;4956660;28;19914;-67
2023/10/14 17:05:41;;;;;;;;;;;15.50;98.00;;;;;;4956283;28;20301;-67
2023/10/14 17:08:08;;;;;;;;;;;15.50;98.30;;;;;;4956874;28;19920;-67
2023/10/14 17:10:35;;;;;;;;;;;15.50;98.20;;;;;;4957084;28;19914;-67
2023/10/14 17:13:01;;;;;;;;;;;15.40;98.20;;;;;;4957879;28;20382;-67
2023/10/14 17:15:29;;;;;;;;;;;15.40;98.10;;;;;;4956675;28;19922;-68
2023/10/14 17:17:56;;;;;;;;;;;15.30;98.30;;;;;;4957177;28;20325;-67
2023/10/14 17:20:23;;;;;;;;;;;15.20;98.50;;;;;;4956442;28;19969;-66
2023/10/14 17:23:00;;;;;;;;;;;15.30;98.50;;;;;;4954990;28;20356;-67
2023/10/14 17:25:26;;;;;;;;;;;15.40;98.10;;;;;;4956019;28;19958;-66
2023/10/14 17:27:52;;;;;;;;;;;15.30;98.20;;;;;;4955979;28;19911;-66
2023/10/14 17:30:19;;;;;;;;;;;15.30;98.20;;;;;;4955791;28;20448;-66
2023/10/14 17:32:45;;;;;;;;;;;15.30;98.20;;;;;;4952121;28;19964;-65
2023/10/14 17:35:13;;;;;;;;;;;15.40;97.90;;;;;;4955174;28;20297;-66
2023/10/14 17:37:43;;;;;;;;;;;15.40;98.00;;;;;;4955898;28;19918;-67
2023/10/14 17:40:14;;;;;;;;;;;15.40;98.00;;;;;;4955492;28;20020;-66
2023/10/14 17:42:41;;;;;;;;;;;15.30;98.00;;;;;;4947236;28;19915;-65
2023/10/14 17:45:08;;;;;;;;;;;15.30;98.00;;;;;;4947719;29;20281;-65
2023/10/14 17:47:34;;;;;;;;;;;15.30;98.10;;;;;;4956444;28;19994;-65
2023/10/14 17:49:59;;;;;;;;;;;15.40;98.30;;;;;;4955640;28;19949;-67
2023/10/14 17:52:24;;;;;;;;;;;15.30;98.60;;;;;;4955659;28;20444;-67
2023/10/14 17:54:53;;;;;;;;;;;15.30;98.90;;;;;;4955585;28;20373;-67
2023/10/14 17:57:19;;;;;;;;;;;15.20;98.80;;;;;;4955797;28;19911;-67
2023/10/14 17:59:45;;;;;;;;;;;15.20;98.80;;;;;;4954407;28;19938;-67
2023/10/14 18:02:10;;;;;;;;;;;15.10;99.00;;;;;;4954079;28;19954;-67
2023/10/14 18:04:36;;;;;;;;;;;15.00;99.20;;;;;;4955486;28;19956;-67
2023/10/14 18:07:01;;;;;;;;;;;15.10;99.40;;;;;;4955593;28;20395;-67
2023/10/14 18:09:26;;;;;;;;;;;15.30;99.20;;;;;;4955913;28;19910;-67
2023/10/14 18:11:52;;;;;;;;;;;15.10;99.00;;;;;;4955554;28;20377;-66
2023/10/14 18:14:18;;;;;;;;;;;15.10;99.30;;;;;;4954918;28;20286;-67
2023/10/14 18:16:44;;;;;;;;;;;14.90;99.30;;;;;;4955337;28;19915;-69
2023/10/14 18:19:11;;;;;;;;;;;14.80;99.80;;;;;;4955791;28;20384;-67
2023/10/14 18:21:36;;;;;;;;;;;14.90;99.30;;;;;;4955528;28;19915;-65
2023/10/14 18:24:02;;;;;;;;;;;14.90;99.40;;;;;;4956901;28;19934;-68
2023/10/14 18:26:28;;;;;;;;;;;14.90;99.40;;;;;;4957667;28;19910;-67
2023/10/14 18:28:54;;;;;;;;;;;14.90;99.60;;;;;;4956249;28;20337;-67